sensor_id;sensor_type;location;lat;lon;timestamp;temperature;humidity
2721;DHT22;1368;49.484;11.112;2023-08-12T00:00:16;20.90;99.90
2721;DHT22;1368;49.484;11.112;2023-08-12T00:02:43;21.00;99.90
2721;DHT22;1368;49.484;11.112;2023-08-12T00:05:09;21.00;99.90
2721;DHT22;1368;49.484;11.112;2023-08-12T00:07:37;21.00;99.90
2721;DHT22;1368;49.484;11.112;2023-08-12T00:10:04;21.00;99.90
2721;DHT22;1368;49.484;11.112;2023-08-12T00:12:33;21.00;99.90
2721;DHT22;1368;49.484;11.112;2023-08-12T00:14:59;21.00;99.90
2721;DHT22;1368;49.484;11.112;2023-08-12T00:17:25;21.00;99.90
2721;DHT22;1368;49.484;11.112;2023-08-12T00:19:50;20.90;99.90
2721;DHT22;1368;49.484;11.112;2023-08-12T00:22:16;20.90;99.90
2721;DHT22;1368;49.484;11.112;2023-08-12T00:24:41;20.80;99.90
2721;DHT22;1368;49.484;11.112;2023-08-12T00:27:07;20.80;99.90
2721;DHT22;1368;49.484;11.112;2023-08-12T00:29:34;20.80;99.90
2721;DHT22;1368;49.484;11.112;2023-08-12T00:32:00;20.80;99.90
2721;DHT22;1368;49.484;11.112;2023-08-12T00:34:26;20.80;99.90
2721;DHT22;1368;49.484;11.112;2023-08-12T00:36:51;20.80;99.90
2721;DHT22;1368;49.484;11.112;2023-08-12T00:39:17;20.80;99.90
2721;DHT22;1368;49.484;11.112;2023-08-12T00:41:43;20.80;99.90
2721;DHT22;1368;49.484;11.112;2023-08-12T00:44:08;20.80;99.90
2721;DHT22;1368;49.484;11.112;2023-08-12T00:46:34;20.90;99.90
2721;DHT22;1368;49.484;11.112;2023-08-12T00:49:00;20.60;99.90
2721;DHT22;1368;49.484;11.112;2023-08-12T00:51:26;20.50;99.90
2721;DHT22;1368;49.484;11.112;2023-08-12T00:53:52;20.50;99.90
2721;DHT22;1368;49.484;11.112;2023-08-12T00:56:20;20.50;99.90
2721;DHT22;1368;49.484;11.112;2023-08-12T00:58:46;20.90;99.90
2721;DHT22;1368;49.484;11.112;2023-08-12T01:01:12;20.60;99.90
2721;DHT22;1368;49.484;11.112;2023-08-12T01:03:38;20.50;99.90
2721;DHT22;1368;49.484;11.112;2023-08-12T01:06:04;20.70;99.90
2721;DHT22;1368;49.484;11.112;2023-08-12T01:08:31;20.40;99.90
2721;DHT22;1368;49.484;11.112;2023-08-12T01:13:52;20.30;99.90
2721;DHT22;1368;49.484;11.112;2023-08-12T01:16:23;20.20;99.90
2721;DHT22;1368;49.484;11.112;2023-08-12T01:18:51;20.20;99.90
2721;DHT22;1368;49.484;11.112;2023-08-12T01:21:21;20.10;99.90
2721;DHT22;1368;49.484;11.112;2023-08-12T01:23:47;20.10;99.90
2721;DHT22;1368;49.484;11.112;2023-08-12T01:26:13;20.00;99.90
2721;DHT22;1368;49.484;11.112;2023-08-12T01:28:39;20.00;99.90
2721;DHT22;1368;49.484;11.112;2023-08-12T01:31:21;20.00;99.90
2721;DHT22;1368;49.484;11.112;2023-08-12T01:33:58;20.00;99.90
2721;DHT22;1368;49.484;11.112;2023-08-12T01:36:29;20.30;99.90
2721;DHT22;1368;49.484;11.112;2023-08-12T01:38:58;19.90;99.90
2721;DHT22;1368;49.484;11.112;2023-08-12T01:41:25;20.00;99.90
2721;DHT22;1368;49.484;11.112;2023-08-12T01:43:51;20.10;99.90
2721;DHT22;1368;49.484;11.112;2023-08-12T01:46:17;20.20;99.90
2721;DHT22;1368;49.484;11.112;2023-08-12T01:48:42;20.10;99.90
2721;DHT22;1368;49.484;11.112;2023-08-12T01:51:08;20.20;99.90
2721;DHT22;1368;49.484;11.112;2023-08-12T01:53:33;20.00;99.90
2721;DHT22;1368;49.484;11.112;2023-08-12T01:55:59;20.10;99.90
2721;DHT22;1368;49.484;11.112;2023-08-12T01:58:25;20.10;99.90
2721;DHT22;1368;49.484;11.112;2023-08-12T02:00:52;20.30;99.90
2721;DHT22;1368;49.484;11.112;2023-08-12T02:03:18;19.70;99.90
2721;DHT22;1368;49.484;11.112;2023-08-12T02:05:43;19.50;99.90
2721;DHT22;1368;49.484;11.112;2023-08-12T02:08:09;19.40;99.90
2721;DHT22;1368;49.484;11.112;2023-08-12T02:10:34;19.40;99.90
2721;DHT22;1368;49.484;11.112;2023-08-12T02:13:00;19.20;99.90
2721;DHT22;1368;49.484;11.112;2023-08-12T02:15:26;19.40;99.90
2721;DHT22;1368;49.484;11.112;2023-08-12T02:17:52;19.40;99.90
2721;DHT22;1368;49.484;11.112;2023-08-12T02:20:17;19.90;99.90
2721;DHT22;1368;49.484;11.112;2023-08-12T02:22:44;19.40;99.90
2721;DHT22;1368;49.484;11.112;2023-08-12T02:25:09;19.20;99.90
2721;DHT22;1368;49.484;11.112;2023-08-12T02:27:35;18.90;99.90
2721;DHT22;1368;49.484;11.112;2023-08-12T02:30:00;19.40;99.90
2721;DHT22;1368;49.484;11.112;2023-08-12T02:32:26;18.90;99.90
2721;DHT22;1368;49.484;11.112;2023-08-12T02:34:51;18.70;99.90
2721;DHT22;1368;49.484;11.112;2023-08-12T02:37:17;18.70;99.90
2721;DHT22;1368;49.484;11.112;2023-08-12T02:39:42;18.70;99.90
2721;DHT22;1368;49.484;11.112;2023-08-12T02:42:08;18.70;99.90
2721;DHT22;1368;49.484;11.112;2023-08-12T02:44:33;19.20;99.90
2721;DHT22;1368;49.484;11.112;2023-08-12T02:46:59;18.60;99.90
2721;DHT22;1368;49.484;11.112;2023-08-12T02:49:24;18.60;99.90
2721;DHT22;1368;49.484;11.112;2023-08-12T02:51:50;19.00;99.90
2721;DHT22;1368;49.484;11.112;2023-08-12T02:54:15;18.50;99.90
2721;DHT22;1368;49.484;11.112;2023-08-12T02:56:41;18.70;99.90
2721;DHT22;1368;49.484;11.112;2023-08-12T02:59:07;18.80;99.90
2721;DHT22;1368;49.484;11.112;2023-08-12T03:01:32;18.70;99.90
2721;DHT22;1368;49.484;11.112;2023-08-12T03:03:58;18.60;99.90
2721;DHT22;1368;49.484;11.112;2023-08-12T03:06:23;18.70;99.90
2721;DHT22;1368;49.484;11.112;2023-08-12T03:08:49;18.70;99.90
2721;DHT22;1368;49.484;11.112;2023-08-12T03:11:14;18.70;99.90
2721;DHT22;1368;49.484;11.112;2023-08-12T03:13:41;18.60;99.90
2721;DHT22;1368;49.484;11.112;2023-08-12T03:16:11;19.10;99.90
2721;DHT22;1368;49.484;11.112;2023-08-12T03:18:37;19.00;99.90
2721;DHT22;1368;49.484;11.112;2023-08-12T03:21:07;18.80;99.90
2721;DHT22;1368;49.484;11.112;2023-08-12T03:23:33;19.40;99.90
2721;DHT22;1368;49.484;11.112;2023-08-12T03:25:58;19.50;99.90
2721;DHT22;1368;49.484;11.112;2023-08-12T03:28:24;19.20;99.90
2721;DHT22;1368;49.484;11.112;2023-08-12T03:30:51;19.20;99.90
2721;DHT22;1368;49.484;11.112;2023-08-12T03:33:17;19.30;99.90
2721;DHT22;1368;49.484;11.112;2023-08-12T03:35:48;19.30;99.90
2721;DHT22;1368;49.484;11.112;2023-08-12T03:38:15;19.30;99.90
2721;DHT22;1368;49.484;11.112;2023-08-12T03:40:41;19.30;99.90
2721;DHT22;1368;49.484;11.112;2023-08-12T03:43:07;19.20;99.90
2721;DHT22;1368;49.484;11.112;2023-08-12T03:45:33;19.30;99.90
2721;DHT22;1368;49.484;11.112;2023-08-12T03:48:04;19.30;99.90
2721;DHT22;1368;49.484;11.112;2023-08-12T03:50:33;19.30;99.90
2721;DHT22;1368;49.484;11.112;2023-08-12T03:52:59;19.60;99.90
2721;DHT22;1368;49.484;11.112;2023-08-12T03:55:25;19.20;99.90
2721;DHT22;1368;49.484;11.112;2023-08-12T03:57:50;19.40;99.90
2721;DHT22;1368;49.484;11.112;2023-08-12T04:00:17;19.10;99.90
2721;DHT22;1368;49.484;11.112;2023-08-12T04:02:42;19.20;99.90
2721;DHT22;1368;49.484;11.112;2023-08-12T04:05:08;19.20;99.90
2721;DHT22;1368;49.484;11.112;2023-08-12T04:07:36;19.10;99.90
2721;DHT22;1368;49.484;11.112;2023-08-12T04:10:02;19.60;99.90
2721;DHT22;1368;49.484;11.112;2023-08-12T04:12:27;19.10;99.90
2721;DHT22;1368;49.484;11.112;2023-08-12T04:14:53;19.60;99.90
2721;DHT22;1368;49.484;11.112;2023-08-12T04:17:18;19.30;99.90
2721;DHT22;1368;49.484;11.112;2023-08-12T04:19:44;19.50;99.90
2721;DHT22;1368;49.484;11.112;2023-08-12T04:22:09;19.60;99.90
2721;DHT22;1368;49.484;11.112;2023-08-12T04:24:35;19.70;99.90
2721;DHT22;1368;49.484;11.112;2023-08-12T04:27:01;19.50;99.90
2721;DHT22;1368;49.484;11.112;2023-08-12T04:29:26;19.70;99.90
2721;DHT22;1368;49.484;11.112;2023-08-12T04:31:52;20.30;99.90
2721;DHT22;1368;49.484;11.112;2023-08-12T04:34:18;20.10;99.90
2721;DHT22;1368;49.484;11.112;2023-08-12T04:36:43;20.30;99.90
2721;DHT22;1368;49.484;11.112;2023-08-12T04:39:09;20.40;99.90
2721;DHT22;1368;49.484;11.112;2023-08-12T04:41:35;20.40;99.90
2721;DHT22;1368;49.484;11.112;2023-08-12T04:44:04;20.30;99.90
2721;DHT22;1368;49.484;11.112;2023-08-12T04:46:30;20.10;99.90
2721;DHT22;1368;49.484;11.112;2023-08-12T04:48:55;20.00;99.90
2721;DHT22;1368;49.484;11.112;2023-08-12T04:51:21;20.00;99.90
2721;DHT22;1368;49.484;11.112;2023-08-12T04:53:46;20.00;99.90
2721;DHT22;1368;49.484;11.112;2023-08-12T04:56:12;20.00;99.90
2721;DHT22;1368;49.484;11.112;2023-08-12T04:58:37;20.30;99.90
2721;DHT22;1368;49.484;11.112;2023-08-12T05:01:03;20.90;99.90
2721;DHT22;1368;49.484;11.112;2023-08-12T05:03:29;21.60;99.90
2721;DHT22;1368;49.484;11.112;2023-08-12T05:05:55;22.20;99.90
2721;DHT22;1368;49.484;11.112;2023-08-12T05:08:20;22.70;99.90
2721;DHT22;1368;49.484;11.112;2023-08-12T05:10:50;22.90;99.90
2721;DHT22;1368;49.484;11.112;2023-08-12T05:13:16;23.20;99.90
2721;DHT22;1368;49.484;11.112;2023-08-12T05:15:45;23.10;99.90
2721;DHT22;1368;49.484;11.112;2023-08-12T05:18:11;23.30;99.90
2721;DHT22;1368;49.484;11.112;2023-08-12T05:20:37;23.50;99.90
2721;DHT22;1368;49.484;11.112;2023-08-12T05:23:02;23.50;99.90
2721;DHT22;1368;49.484;11.112;2023-08-12T05:25:28;23.30;99.90
2721;DHT22;1368;49.484;11.112;2023-08-12T05:27:53;23.20;99.90
2721;DHT22;1368;49.484;11.112;2023-08-12T05:30:19;22.70;99.90
2721;DHT22;1368;49.484;11.112;2023-08-12T05:32:45;22.60;99.90
2721;DHT22;1368;49.484;11.112;2023-08-12T05:35:10;22.50;99.90
2721;DHT22;1368;49.484;11.112;2023-08-12T05:37:36;22.60;99.90
2721;DHT22;1368;49.484;11.112;2023-08-12T05:40:01;23.40;99.90
2721;DHT22;1368;49.484;11.112;2023-08-12T05:42:28;22.70;99.90
2721;DHT22;1368;49.484;11.112;2023-08-12T05:44:54;22.60;99.90
2721;DHT22;1368;49.484;11.112;2023-08-12T05:47:19;22.70;99.90
2721;DHT22;1368;49.484;11.112;2023-08-12T05:49:45;23.50;99.90
2721;DHT22;1368;49.484;11.112;2023-08-12T05:52:10;24.20;99.90
2721;DHT22;1368;49.484;11.112;2023-08-12T05:54:36;24.80;99.90
2721;DHT22;1368;49.484;11.112;2023-08-12T05:57:01;24.90;99.90
2721;DHT22;1368;49.484;11.112;2023-08-12T05:59:27;25.20;99.90
2721;DHT22;1368;49.484;11.112;2023-08-12T06:01:53;25.90;99.90
2721;DHT22;1368;49.484;11.112;2023-08-12T06:04:19;27.60;99.90
2721;DHT22;1368;49.484;11.112;2023-08-12T06:06:45;27.80;99.90
2721;DHT22;1368;49.484;11.112;2023-08-12T06:09:10;28.30;99.90
2721;DHT22;1368;49.484;11.112;2023-08-12T06:11:36;28.50;99.60
2721;DHT22;1368;49.484;11.112;2023-08-12T06:14:01;28.20;99.50
2721;DHT22;1368;49.484;11.112;2023-08-12T06:16:27;27.60;99.90
2721;DHT22;1368;49.484;11.112;2023-08-12T06:18:52;26.80;99.90
2721;DHT22;1368;49.484;11.112;2023-08-12T06:21:18;26.70;99.90
2721;DHT22;1368;49.484;11.112;2023-08-12T06:23:43;26.30;99.90
2721;DHT22;1368;49.484;11.112;2023-08-12T06:26:09;25.90;99.90
2721;DHT22;1368;49.484;11.112;2023-08-12T06:28:34;25.60;99.90
2721;DHT22;1368;49.484;11.112;2023-08-12T06:31:00;26.10;99.90
2721;DHT22;1368;49.484;11.112;2023-08-12T06:33:26;25.40;99.90
2721;DHT22;1368;49.484;11.112;2023-08-12T06:35:52;25.90;99.90
2721;DHT22;1368;49.484;11.112;2023-08-12T06:38:17;25.10;99.90
2721;DHT22;1368;49.484;11.112;2023-08-12T06:40:43;25.00;99.90
2721;DHT22;1368;49.484;11.112;2023-08-12T06:43:09;24.70;99.90
2721;DHT22;1368;49.484;11.112;2023-08-12T06:45:35;24.90;99.90
2721;DHT22;1368;49.484;11.112;2023-08-12T06:48:01;25.10;99.90
2721;DHT22;1368;49.484;11.112;2023-08-12T06:50:29;25.20;99.90
2721;DHT22;1368;49.484;11.112;2023-08-12T06:52:55;25.80;99.90
2721;DHT22;1368;49.484;11.112;2023-08-12T06:55:21;26.20;99.90
2721;DHT22;1368;49.484;11.112;2023-08-12T06:57:46;25.80;99.90
2721;DHT22;1368;49.484;11.112;2023-08-12T07:00:12;25.90;99.90
2721;DHT22;1368;49.484;11.112;2023-08-12T07:02:38;25.70;99.90
2721;DHT22;1368;49.484;11.112;2023-08-12T07:05:07;25.80;99.90
2721;DHT22;1368;49.484;11.112;2023-08-12T07:07:32;25.80;99.90
2721;DHT22;1368;49.484;11.112;2023-08-12T07:09:58;25.90;99.90
2721;DHT22;1368;49.484;11.112;2023-08-12T07:12:23;26.10;99.90
2721;DHT22;1368;49.484;11.112;2023-08-12T07:14:49;26.30;99.90
2721;DHT22;1368;49.484;11.112;2023-08-12T07:17:15;26.60;99.90
2721;DHT22;1368;49.484;11.112;2023-08-12T07:19:40;26.80;99.90
2721;DHT22;1368;49.484;11.112;2023-08-12T07:22:06;27.40;99.90
2721;DHT22;1368;49.484;11.112;2023-08-12T07:24:31;27.30;99.90
2721;DHT22;1368;49.484;11.112;2023-08-12T07:26:57;27.90;99.90
2721;DHT22;1368;49.484;11.112;2023-08-12T07:29:22;28.40;99.90
2721;DHT22;1368;49.484;11.112;2023-08-12T07:31:48;28.10;99.90
2721;DHT22;1368;49.484;11.112;2023-08-12T07:34:13;28.70;99.90
2721;DHT22;1368;49.484;11.112;2023-08-12T07:36:40;29.10;99.90
2721;DHT22;1368;49.484;11.112;2023-08-12T07:39:06;28.70;99.90
2721;DHT22;1368;49.484;11.112;2023-08-12T07:41:32;28.80;99.90
2721;DHT22;1368;49.484;11.112;2023-08-12T07:43:57;28.70;99.90
2721;DHT22;1368;49.484;11.112;2023-08-12T07:46:23;29.10;99.90
2721;DHT22;1368;49.484;11.112;2023-08-12T07:48:49;30.70;99.60
2721;DHT22;1368;49.484;11.112;2023-08-12T07:51:14;31.80;97.50
2721;DHT22;1368;49.484;11.112;2023-08-12T07:53:40;32.20;96.20
2721;DHT22;1368;49.484;11.112;2023-08-12T07:56:06;31.90;95.80
2721;DHT22;1368;49.484;11.112;2023-08-12T07:58:31;31.40;96.30
2721;DHT22;1368;49.484;11.112;2023-08-12T08:00:57;31.30;96.60
2721;DHT22;1368;49.484;11.112;2023-08-12T08:03:22;31.10;96.40
2721;DHT22;1368;49.484;11.112;2023-08-12T08:05:48;30.80;96.90
2721;DHT22;1368;49.484;11.112;2023-08-12T08:08:14;30.40;97.20
2721;DHT22;1368;49.484;11.112;2023-08-12T08:10:39;30.30;97.60
2721;DHT22;1368;49.484;11.112;2023-08-12T08:13:05;30.70;97.40
2721;DHT22;1368;49.484;11.112;2023-08-12T08:15:30;30.70;96.40
2721;DHT22;1368;49.484;11.112;2023-08-12T08:17:56;30.90;95.70
2721;DHT22;1368;49.484;11.112;2023-08-12T08:20:22;30.50;96.40
2721;DHT22;1368;49.484;11.112;2023-08-12T08:22:48;30.60;96.70
2721;DHT22;1368;49.484;11.112;2023-08-12T08:25:13;30.20;96.70
2721;DHT22;1368;49.484;11.112;2023-08-12T08:30:14;30.20;95.90
2721;DHT22;1368;49.484;11.112;2023-08-12T08:32:40;30.20;96.40
2721;DHT22;1368;49.484;11.112;2023-08-12T08:35:06;30.40;96.10
2721;DHT22;1368;49.484;11.112;2023-08-12T08:37:31;30.60;95.80
2721;DHT22;1368;49.484;11.112;2023-08-12T08:39:57;31.20;95.60
2721;DHT22;1368;49.484;11.112;2023-08-12T08:42:24;31.60;94.30
2721;DHT22;1368;49.484;11.112;2023-08-12T08:44:52;31.90;94.30
2721;DHT22;1368;49.484;11.112;2023-08-12T08:47:25;32.00;93.70
2721;DHT22;1368;49.484;11.112;2023-08-12T08:50:18;32.00;93.40
2721;DHT22;1368;49.484;11.112;2023-08-12T08:52:43;31.70;94.00
2721;DHT22;1368;49.484;11.112;2023-08-12T08:55:09;31.90;93.40
2721;DHT22;1368;49.484;11.112;2023-08-12T08:57:37;32.40;93.40
2721;DHT22;1368;49.484;11.112;2023-08-12T09:00:04;33.40;91.80
2721;DHT22;1368;49.484;11.112;2023-08-12T09:02:33;34.30;90.80
2721;DHT22;1368;49.484;11.112;2023-08-12T09:04:59;34.40;91.10
2721;DHT22;1368;49.484;11.112;2023-08-12T09:07:25;34.90;89.70
2721;DHT22;1368;49.484;11.112;2023-08-12T09:09:52;34.80;88.00
2721;DHT22;1368;49.484;11.112;2023-08-12T09:12:20;35.10;87.80
2721;DHT22;1368;49.484;11.112;2023-08-12T09:14:46;36.10;87.50
2721;DHT22;1368;49.484;11.112;2023-08-12T09:17:11;36.70;85.80
2721;DHT22;1368;49.484;11.112;2023-08-12T09:19:37;36.80;82.80
2721;DHT22;1368;49.484;11.112;2023-08-12T09:22:06;36.60;80.90
2721;DHT22;1368;49.484;11.112;2023-08-12T09:24:34;35.50;78.90
2721;DHT22;1368;49.484;11.112;2023-08-12T09:26:59;35.40;80.00
2721;DHT22;1368;49.484;11.112;2023-08-12T09:29:34;34.60;82.20
2721;DHT22;1368;49.484;11.112;2023-08-12T09:32:13;34.00;82.50
2721;DHT22;1368;49.484;11.112;2023-08-12T09:34:58;33.90;83.60
2721;DHT22;1368;49.484;11.112;2023-08-12T09:37:24;33.00;84.80
2721;DHT22;1368;49.484;11.112;2023-08-12T09:39:53;32.40;87.00
2721;DHT22;1368;49.484;11.112;2023-08-12T09:42:19;32.40;88.00
2721;DHT22;1368;49.484;11.112;2023-08-12T09:44:44;32.50;89.80
2721;DHT22;1368;49.484;11.112;2023-08-12T09:47:11;32.60;88.30
2721;DHT22;1368;49.484;11.112;2023-08-12T09:49:38;32.50;89.20
2721;DHT22;1368;49.484;11.112;2023-08-12T09:52:04;32.60;87.80
2721;DHT22;1368;49.484;11.112;2023-08-12T09:54:34;32.10;90.60
2721;DHT22;1368;49.484;11.112;2023-08-12T09:57:01;32.00;89.50
2721;DHT22;1368;49.484;11.112;2023-08-12T09:59:34;32.20;90.70
2721;DHT22;1368;49.484;11.112;2023-08-12T10:02:04;32.80;89.80
2721;DHT22;1368;49.484;11.112;2023-08-12T10:04:44;33.20;88.50
2721;DHT22;1368;49.484;11.112;2023-08-12T10:07:11;33.50;89.60
2721;DHT22;1368;49.484;11.112;2023-08-12T10:09:38;34.00;84.80
2721;DHT22;1368;49.484;11.112;2023-08-12T10:12:08;33.80;84.40
2721;DHT22;1368;49.484;11.112;2023-08-12T10:14:34;33.80;84.90
2721;DHT22;1368;49.484;11.112;2023-08-12T10:17:00;33.80;86.60
2721;DHT22;1368;49.484;11.112;2023-08-12T10:19:26;33.60;87.70
2721;DHT22;1368;49.484;11.112;2023-08-12T10:21:56;34.20;86.90
2721;DHT22;1368;49.484;11.112;2023-08-12T10:24:27;34.80;84.20
2721;DHT22;1368;49.484;11.112;2023-08-12T10:26:53;35.10;82.90
2721;DHT22;1368;49.484;11.112;2023-08-12T10:29:20;34.80;83.60
2721;DHT22;1368;49.484;11.112;2023-08-12T10:31:47;34.70;84.00
2721;DHT22;1368;49.484;11.112;2023-08-12T10:34:25;33.80;84.70
2721;DHT22;1368;49.484;11.112;2023-08-12T10:36:55;34.00;86.40
2721;DHT22;1368;49.484;11.112;2023-08-12T10:39:27;33.90;86.80
2721;DHT22;1368;49.484;11.112;2023-08-12T10:41:57;33.80;85.00
2721;DHT22;1368;49.484;11.112;2023-08-12T10:44:38;33.50;85.00
2721;DHT22;1368;49.484;11.112;2023-08-12T10:47:10;33.50;85.30
2721;DHT22;1368;49.484;11.112;2023-08-12T10:49:42;33.20;85.80
2721;DHT22;1368;49.484;11.112;2023-08-12T10:52:26;32.80;86.70
2721;DHT22;1368;49.484;11.112;2023-08-12T10:54:52;32.60;86.60
2721;DHT22;1368;49.484;11.112;2023-08-12T10:57:18;32.40;87.70
2721;DHT22;1368;49.484;11.112;2023-08-12T10:59:47;31.90;89.20
2721;DHT22;1368;49.484;11.112;2023-08-12T11:02:26;32.00;90.30
2721;DHT22;1368;49.484;11.112;2023-08-12T11:05:03;32.10;90.30
2721;DHT22;1368;49.484;11.112;2023-08-12T11:07:34;32.70;89.60
2721;DHT22;1368;49.484;11.112;2023-08-12T11:10:14;33.30;89.70
2721;DHT22;1368;49.484;11.112;2023-08-12T11:12:47;33.90;85.20
2721;DHT22;1368;49.484;11.112;2023-08-12T11:15:13;33.90;90.00
2721;DHT22;1368;49.484;11.112;2023-08-12T11:17:40;34.60;86.90
2721;DHT22;1368;49.484;11.112;2023-08-12T11:20:10;35.00;84.50
2721;DHT22;1368;49.484;11.112;2023-08-12T11:22:40;35.00;84.30
2721;DHT22;1368;49.484;11.112;2023-08-12T11:25:11;34.90;84.70
2721;DHT22;1368;49.484;11.112;2023-08-12T11:27:37;35.00;87.30
2721;DHT22;1368;49.484;11.112;2023-08-12T11:30:04;35.40;83.30
2721;DHT22;1368;49.484;11.112;2023-08-12T11:32:30;35.40;83.30
2721;DHT22;1368;49.484;11.112;2023-08-12T11:34:55;35.60;85.00
2721;DHT22;1368;49.484;11.112;2023-08-12T11:37:21;35.40;82.20
2721;DHT22;1368;49.484;11.112;2023-08-12T11:39:47;35.00;84.60
2721;DHT22;1368;49.484;11.112;2023-08-12T11:42:12;34.80;84.00
2721;DHT22;1368;49.484;11.112;2023-08-12T11:44:40;34.80;83.50
2721;DHT22;1368;49.484;11.112;2023-08-12T11:47:06;34.60;85.60
2721;DHT22;1368;49.484;11.112;2023-08-12T11:49:32;34.60;85.40
2721;DHT22;1368;49.484;11.112;2023-08-12T11:51:57;35.00;84.80
2721;DHT22;1368;49.484;11.112;2023-08-12T11:54:23;34.70;84.40
2721;DHT22;1368;49.484;11.112;2023-08-12T11:56:48;34.80;87.10
2721;DHT22;1368;49.484;11.112;2023-08-12T11:59:14;34.80;84.60
2721;DHT22;1368;49.484;11.112;2023-08-12T12:01:40;34.50;83.50
2721;DHT22;1368;49.484;11.112;2023-08-12T12:04:05;34.20;85.30
2721;DHT22;1368;49.484;11.112;2023-08-12T12:06:33;34.40;86.50
2721;DHT22;1368;49.484;11.112;2023-08-12T12:09:07;34.40;86.30
2721;DHT22;1368;49.484;11.112;2023-08-12T12:11:35;34.20;85.00
2721;DHT22;1368;49.484;11.112;2023-08-12T12:14:03;33.80;90.10
2721;DHT22;1368;49.484;11.112;2023-08-12T12:16:40;33.90;85.90
2721;DHT22;1368;49.484;11.112;2023-08-12T12:19:14;33.70;86.20
2721;DHT22;1368;49.484;11.112;2023-08-12T12:21:41;33.70;86.40
2721;DHT22;1368;49.484;11.112;2023-08-12T12:24:10;33.40;87.60
2721;DHT22;1368;49.484;11.112;2023-08-12T12:26:36;32.90;88.90
2721;DHT22;1368;49.484;11.112;2023-08-12T12:29:03;32.40;90.20
2721;DHT22;1368;49.484;11.112;2023-08-12T12:31:31;32.00;89.80
2721;DHT22;1368;49.484;11.112;2023-08-12T12:33:56;32.10;90.30
2721;DHT22;1368;49.484;11.112;2023-08-12T12:36:22;32.10;90.60
2721;DHT22;1368;49.484;11.112;2023-08-12T12:38:47;32.20;91.20
2721;DHT22;1368;49.484;11.112;2023-08-12T12:41:13;32.70;90.70
2721;DHT22;1368;49.484;11.112;2023-08-12T12:43:39;33.10;91.10
2721;DHT22;1368;49.484;11.112;2023-08-12T12:46:05;33.30;90.30
2721;DHT22;1368;49.484;11.112;2023-08-12T12:48:30;33.40;88.90
2721;DHT22;1368;49.484;11.112;2023-08-12T12:50:56;33.50;89.00
2721;DHT22;1368;49.484;11.112;2023-08-12T12:53:21;33.50;87.30
2721;DHT22;1368;49.484;11.112;2023-08-12T12:55:47;33.80;86.50
2721;DHT22;1368;49.484;11.112;2023-08-12T12:58:13;33.70;89.80
2721;DHT22;1368;49.484;11.112;2023-08-12T13:00:38;33.60;86.20
2721;DHT22;1368;49.484;11.112;2023-08-12T13:03:04;33.40;87.70
2721;DHT22;1368;49.484;11.112;2023-08-12T13:05:29;33.20;87.90
2721;DHT22;1368;49.484;11.112;2023-08-12T13:07:55;33.20;87.50
2721;DHT22;1368;49.484;11.112;2023-08-12T13:10:21;33.40;89.70
2721;DHT22;1368;49.484;11.112;2023-08-12T13:12:46;33.80;89.10
2721;DHT22;1368;49.484;11.112;2023-08-12T13:15:12;34.30;89.60
2721;DHT22;1368;49.484;11.112;2023-08-12T13:17:37;34.90;88.20
2721;DHT22;1368;49.484;11.112;2023-08-12T13:20:03;35.30;84.70
2721;DHT22;1368;49.484;11.112;2023-08-12T13:22:29;35.60;86.10
2721;DHT22;1368;49.484;11.112;2023-08-12T13:24:54;35.50;88.80
2721;DHT22;1368;49.484;11.112;2023-08-12T13:27:20;35.60;86.60
2721;DHT22;1368;49.484;11.112;2023-08-12T13:29:45;35.90;86.70
2721;DHT22;1368;49.484;11.112;2023-08-12T13:32:11;36.00;88.30
2721;DHT22;1368;49.484;11.112;2023-08-12T13:34:37;36.00;85.50
2721;DHT22;1368;49.484;11.112;2023-08-12T13:37:02;36.00;85.60
2721;DHT22;1368;49.484;11.112;2023-08-12T13:39:28;36.30;84.50
2721;DHT22;1368;49.484;11.112;2023-08-12T13:41:53;36.10;85.70
2721;DHT22;1368;49.484;11.112;2023-08-12T13:44:20;36.10;82.80
2721;DHT22;1368;49.484;11.112;2023-08-12T13:46:45;36.20;83.00
2721;DHT22;1368;49.484;11.112;2023-08-12T13:49:11;36.40;82.80
2721;DHT22;1368;49.484;11.112;2023-08-12T13:51:37;36.40;84.40
2721;DHT22;1368;49.484;11.112;2023-08-12T13:54:02;36.30;82.10
2721;DHT22;1368;49.484;11.112;2023-08-12T13:56:28;36.10;83.40
2721;DHT22;1368;49.484;11.112;2023-08-12T13:58:54;35.80;82.20
2721;DHT22;1368;49.484;11.112;2023-08-12T14:01:19;35.50;82.40
2721;DHT22;1368;49.484;11.112;2023-08-12T14:03:45;35.30;84.00
2721;DHT22;1368;49.484;11.112;2023-08-12T14:06:10;35.00;82.40
2721;DHT22;1368;49.484;11.112;2023-08-12T14:08:36;34.60;82.90
2721;DHT22;1368;49.484;11.112;2023-08-12T14:11:01;34.30;83.20
2721;DHT22;1368;49.484;11.112;2023-08-12T14:13:27;34.20;84.90
2721;DHT22;1368;49.484;11.112;2023-08-12T14:15:53;32.50;88.70
2721;DHT22;1368;49.484;11.112;2023-08-12T14:18:19;30.30;93.20
2721;DHT22;1368;49.484;11.112;2023-08-12T14:20:44;29.10;96.70
2721;DHT22;1368;49.484;11.112;2023-08-12T14:23:10;28.50;99.00
2721;DHT22;1368;49.484;11.112;2023-08-12T14:25:35;27.80;99.90
2721;DHT22;1368;49.484;11.112;2023-08-12T14:28:01;27.20;99.90
2721;DHT22;1368;49.484;11.112;2023-08-12T14:30:26;26.80;99.90
2721;DHT22;1368;49.484;11.112;2023-08-12T14:32:52;25.90;99.90
2721;DHT22;1368;49.484;11.112;2023-08-12T14:35:18;25.00;99.90
2721;DHT22;1368;49.484;11.112;2023-08-12T14:37:43;23.60;99.90
2721;DHT22;1368;49.484;11.112;2023-08-12T14:40:09;22.90;99.90
2721;DHT22;1368;49.484;11.112;2023-08-12T14:42:35;22.20;99.90
2721;DHT22;1368;49.484;11.112;2023-08-12T14:45:01;21.80;99.90
2721;DHT22;1368;49.484;11.112;2023-08-12T14:47:27;22.10;99.90
2721;DHT22;1368;49.484;11.112;2023-08-12T14:49:52;21.80;99.90
2721;DHT22;1368;49.484;11.112;2023-08-12T14:52:21;21.60;99.90
2721;DHT22;1368;49.484;11.112;2023-08-12T14:54:47;21.60;99.90
2721;DHT22;1368;49.484;11.112;2023-08-12T14:57:13;21.50;99.90
2721;DHT22;1368;49.484;11.112;2023-08-12T14:59:39;21.70;99.90
2721;DHT22;1368;49.484;11.112;2023-08-12T15:02:05;21.90;99.90
2721;DHT22;1368;49.484;11.112;2023-08-12T15:04:30;22.10;99.90
2721;DHT22;1368;49.484;11.112;2023-08-12T15:06:56;22.40;99.90
2721;DHT22;1368;49.484;11.112;2023-08-12T15:09:21;22.60;99.90
2721;DHT22;1368;49.484;11.112;2023-08-12T15:11:47;22.60;99.90
2721;DHT22;1368;49.484;11.112;2023-08-12T15:14:12;22.70;99.90
2721;DHT22;1368;49.484;11.112;2023-08-12T15:16:38;22.90;99.90
2721;DHT22;1368;49.484;11.112;2023-08-12T15:19:03;23.00;99.90
2721;DHT22;1368;49.484;11.112;2023-08-12T15:21:29;23.20;99.90
2721;DHT22;1368;49.484;11.112;2023-08-12T15:23:55;22.90;99.90
2721;DHT22;1368;49.484;11.112;2023-08-12T15:26:21;23.00;99.90
2721;DHT22;1368;49.484;11.112;2023-08-12T15:28:48;23.50;99.90
2721;DHT22;1368;49.484;11.112;2023-08-12T15:31:14;23.30;99.90
2721;DHT22;1368;49.484;11.112;2023-08-12T15:33:40;23.50;99.90
2721;DHT22;1368;49.484;11.112;2023-08-12T15:36:06;24.40;99.90
2721;DHT22;1368;49.484;11.112;2023-08-12T15:38:31;23.90;99.90
2721;DHT22;1368;49.484;11.112;2023-08-12T15:40:58;24.00;99.90
2721;DHT22;1368;49.484;11.112;2023-08-12T15:43:24;24.50;99.90
2721;DHT22;1368;49.484;11.112;2023-08-12T15:45:49;24.00;99.90